Time;durP1;ratioP1;P1;durP2;ratioP2;P2;SDS_P1;SDS_P2;PMS_P1;PMS_P2;Temp;Humidity;BMP_temperature;BMP_pressure;BME280_temperature;BME280_humidity;BME280_pressure;Samples;Min_cycle;Max_cycle;Signal;HPM_P1;HPM_P2
2021/12/16 00:09:58;;;;;;;11.05;5.97;;;;;;;6.29;98.00;100580.41;10456510;28;20119;-71
2021/12/16 00:31:19;;;;;;;6.78;3.40;;;;;;;7.15;98.07;100728.63;10455683;28;20041;-72
2021/12/16 00:36:19;;;;;;;9.55;4.25;;;;;;;6.89;97.84;100693.09;10463583;28;20039;-72
2021/12/16 00:41:21;;;;;;;7.85;3.97;;;;;;;7.16;97.73;100732.91;10496921;28;20525;-72
2021/12/16 00:57:13;;;;;;;11.93;5.30;;;;;;;6.74;97.69;100680.28;10496384;28;20045;-72
2021/12/16 01:02:44;;;;;;;13.60;5.55;;;;;;;7.18;97.34;100757.41;10495798;28;20075;-72
2021/12/16 01:08:37;;;;;;;8.30;4.03;;;;;;;7.15;97.55;100762.09;10496438;28;20044;-72
2021/12/16 01:34:45;;;;;;;12.10;3.67;;;;;;;6.75;97.68;100724.19;10495121;28;20043;-72
2021/12/16 01:50:36;;;;;;;8.75;4.00;;;;;;;6.67;96.63;100726.66;10495569;28;20052;-72
2021/12/16 01:56:03;;;;;;;13.57;5.40;;;;;;;6.36;96.47;100675.69;10494464;28;20043;-72
2021/12/16 02:01:17;;;;;;;7.07;3.42;;;;;;;7.06;96.61;100798.13;10503212;28;20044;-72
2021/12/16 02:37:59;;;;;;;5.95;3.08;;;;;;;6.11;95.63;100692.81;10414234;28;20033;-72
2021/12/16 02:48:39;;;;;;;7.22;3.58;;;;;;;5.90;96.00;100669.06;10446412;28;20059;-72
2021/12/16 02:53:48;;;;;;;7.90;4.28;;;;;;;7.02;96.41;100857.44;10501252;28;20492;-72
2021/12/16 02:58:53;;;;;;;5.68;3.03;;;;;;;6.24;96.24;100719.78;10498301;28;20452;-74
2021/12/16 03:03:54;;;;;;;;;;;;;;;7.09;95.88;100843.59;10459018;28;20037;-73
2021/12/16 03:08:55;;;;;;;6.93;3.00;;;;;;;6.83;95.84;100827.34;10462619;28;19921;-72
2021/12/16 03:39:11;;;;;;;6.68;3.28;;;;;;;7.02;94.27;100838.94;10499187;28;20033;-72
2021/12/16 03:44:14;;;;;;;9.17;3.20;;;;;;;6.53;93.65;100771.91;10480692;28;20088;-72
2021/12/16 03:49:20;;;;;;;5.82;2.53;;;;;;;6.94;93.91;100850.19;10497814;28;20060;-72
2021/12/16 03:54:32;;;;;;;5.07;2.42;;;;;;;6.84;92.99;100836.91;10498170;28;20044;-73
2021/12/16 03:59:35;;;;;;;4.57;2.28;;;;;;;6.63;92.65;100844.88;10494117;28;20436;-74
2021/12/16 04:04:37;;;;;;;12.00;2.63;;;;;;;6.88;92.74;100871.84;10469436;28;20037;-75
2021/12/16 04:09:38;;;;;;;5.18;2.42;;;;;;;6.92;92.47;100878.53;10447436;28;20056;-73
2021/12/16 04:14:40;;;;;;;7.35;2.55;;;;;;;6.26;91.85;100775.91;10495944;28;20032;-69
2021/12/16 04:19:41;;;;;;;11.32;2.00;;;;;;;6.39;92.03;100805.56;10484163;28;20056;-70
2021/12/16 04:24:46;;;;;;;4.65;2.15;;;;;;;6.82;92.11;100883.78;10457008;28;20059;-71
2021/12/16 04:29:47;;;;;;;7.28;1.95;;;;;;;6.24;91.82;100795.47;10456565;28;20550;-70
2021/12/16 04:34:48;;;;;;;9.43;2.17;;;;;;;6.75;91.77;100887.06;10455195;28;20515;-70
2021/12/16 04:39:49;;;;;;;4.63;2.42;;;;;;;6.83;91.52;100895.16;10454780;28;20713;-70
2021/12/16 04:44:50;;;;;;;6.03;1.88;;;;;;;6.62;92.09;100866.97;10454598;28;20124;-74
2021/12/16 04:49:51;;;;;;;5.50;2.13;;;;;;;5.56;91.44;100700.00;10476559;28;20139;-72
2021/12/16 04:54:53;;;;;;;4.22;2.30;;;;;;;6.91;91.53;100924.41;10496454;28;20036;-72
2021/12/16 04:59:53;;;;;;;6.60;2.13;;;;;;;6.96;92.04;100916.91;10496132;28;20062;-72
2021/12/16 05:04:54;;;;;;;5.57;2.50;;;;;;;6.15;91.28;100779.44;10496030;28;20131;-72
2021/12/16 05:10:05;;;;;;;9.48;2.88;;;;;;;6.81;91.73;100876.78;10495747;28;20040;-72
2021/12/16 05:15:13;;;;;;;15.77;2.53;;;;;;;6.93;90.35;100884.66;10496130;28;20039;-72
2021/12/16 05:20:26;;;;;;;9.65;2.20;;;;;;;6.81;90.36;100866.22;10477921;28;20048;-72
2021/12/16 05:30:56;;;;;;;7.88;1.95;;;;;;;6.82;90.72;100870.56;10471583;28;20136;-72
2021/12/16 05:35:57;;;;;;;10.00;2.33;;;;;;;6.84;90.19;100865.16;10504185;28;20037;-72
2021/12/16 05:41:00;;;;;;;5.35;2.13;;;;;;;6.84;90.03;100855.41;10486435;28;20135;-72
2021/12/16 05:46:01;;;;;;;4.47;2.13;;;;;;;6.46;89.77;100787.44;10503813;28;20040;-72
2021/12/16 05:51:08;;;;;;;6.07;2.10;;;;;;;7.20;88.99;100898.13;10504174;28;20447;-72
2021/12/16 05:56:10;;;;;;;7.50;1.88;;;;;;;7.31;89.35;100942.13;10503600;28;20032;-72
2021/12/16 06:01:16;;;;;;;3.08;1.80;;;;;;;7.23;89.17;100916.34;10502553;28;20123;-72
2021/12/16 06:06:16;;;;;;;3.88;2.10;;;;;;;7.39;89.33;100920.31;10502942;28;20075;-72
2021/12/16 06:11:25;;;;;;;4.43;1.90;;;;;;;6.38;88.46;100748.47;10502032;28;20087;-72
2021/12/16 06:27:14;;;;;;;4.57;1.90;;;;;;;7.18;87.64;100854.31;10502219;28;20467;-72
2021/12/16 06:32:16;;;;;;;5.22;1.88;;;;;;;7.41;87.15;100890.13;10501185;28;20610;-72
2021/12/16 06:37:17;;;;;;;5.60;2.30;;;;;;;7.57;87.48;100892.28;10502172;28;20484;-73
2021/12/16 06:42:18;;;;;;;11.13;4.10;;;;;;;7.77;87.12;100933.66;10501355;28;20040;-72
2021/12/16 06:47:25;;;;;;;11.30;5.03;;;;;;;7.04;87.76;100829.09;10484129;28;20044;-71
2021/12/16 06:52:34;;;;;;;5.55;3.53;;;;;;;7.20;88.41;100876.97;10501332;28;20048;-73
2021/12/16 07:07:50;;;;;;;6.85;3.17;;;;;;;7.09;88.97;100870.00;10500751;28;20488;-74
2021/12/16 07:12:54;;;;;;;5.75;2.80;;;;;;;6.43;90.68;100802.66;10481848;28;20480;-72
2021/12/16 07:17:56;;;;;;;7.63;3.42;;;;;;;7.01;91.20;100933.22;10499002;28;20038;-72
2021/12/16 07:22:59;;;;;;;6.80;4.10;;;;;;;7.15;91.95;100939.13;10498820;28;20127;-72
2021/12/16 07:28:03;;;;;;;5.53;2.80;;;;;;;6.96;90.62;100885.22;10499136;28;20040;-72
2021/12/16 07:33:06;;;;;;;5.97;3.65;;;;;;;7.02;91.87;100912.91;10499376;28;20097;-72
2021/12/16 07:38:07;;;;;;;5.70;3.53;;;;;;;6.10;91.20;100755.28;10499318;28;20036;-72
2021/12/16 07:48:15;;;;;;;6.97;4.03;;;;;;;6.80;91.60;100863.75;10498831;28;20053;-71
2021/12/16 07:53:16;;;;;;;6.07;3.55;;;;;;;7.16;91.47;100907.28;10480372;28;20082;-71
2021/12/16 07:58:19;;;;;;;9.73;3.95;;;;;;;6.85;91.15;100849.19;10498741;28;20150;-71
2021/12/16 08:03:21;;;;;;;6.88;3.80;;;;;;;7.19;92.14;100887.69;10498278;28;20040;-71
2021/12/16 08:08:23;;;;;;;5.90;3.40;;;;;;;7.52;90.65;100899.78;10498029;28;20056;-71
2021/12/16 08:13:24;;;;;;;7.43;3.72;;;;;;;7.06;90.49;100819.25;10498184;28;20032;-73
2021/12/16 08:18:25;;;;;;;7.15;3.38;;;;;;;7.63;89.29;100894.41;10497697;28;20032;-77
2021/12/16 08:23:26;;;;;;;6.50;3.33;;;;;;;7.33;89.03;100850.34;10497407;28;20040;-72
2021/12/16 08:28:28;;;;;;;5.88;3.03;;;;;;;7.18;88.81;100826.09;10497968;28;20037;-73
2021/12/16 08:33:28;;;;;;;9.90;3.42;;;;;;;7.67;88.51;100853.47;10496673;28;20079;-73
2021/12/16 08:38:29;;;;;;;7.57;3.25;;;;;;;6.68;88.37;100699.28;10497884;28;20064;-74
2021/12/16 08:43:30;;;;;;;6.28;3.58;;;;;;;7.42;88.04;100820.47;10497175;28;20071;-72
2021/12/16 08:48:31;;;;;;;8.75;3.47;;;;;;;7.67;87.97;100844.72;10494982;28;20056;-72
2021/12/16 08:53:32;;;;;;;6.53;3.50;;;;;;;6.94;87.29;100722.56;10495970;28;20076;-72
2021/12/16 08:58:34;;;;;;;6.30;3.53;;;;;;;6.92;86.81;100716.59;10496360;28;20040;-72
2021/12/16 09:03:35;;;;;;;5.53;3.22;;;;;;;7.84;87.23;100833.47;10496055;28;20047;-72
2021/12/16 09:08:37;;;;;;;9.45;4.03;;;;;;;7.80;87.13;100836.50;10493882;28;20135;-72
2021/12/16 09:13:41;;;;;;;12.95;3.78;;;;;;;6.70;86.50;100648.97;10495928;28;20094;-72
2021/12/16 09:18:42;;;;;;;5.72;3.50;;;;;;;7.66;87.39;100804.22;10495923;28;20078;-73
2021/12/16 09:23:45;;;;;;;5.53;3.15;;;;;;;6.96;87.04;100659.88;10494139;28;20457;-73
2021/12/16 09:28:47;;;;;;;8.55;3.60;;;;;;;6.72;86.72;100600.34;10478133;28;20033;-72
2021/12/16 09:33:51;;;;;;;5.60;3.30;;;;;;;7.93;85.41;100800.88;10477794;28;20492;-72
2021/12/16 09:38:53;;;;;;;8.52;3.25;;;;;;;7.87;84.69;100800.63;10476919;28;20437;-72
2021/12/16 09:43:56;;;;;;;6.22;3.30;;;;;;;7.63;84.68;100725.16;10495470;28;20488;-72
2021/12/16 09:48:58;;;;;;;4.97;3.00;;;;;;;8.17;83.87;100789.03;10495418;28;20057;-72
2021/12/16 09:54:03;;;;;;;17.25;3.88;;;;;;;7.45;83.33;100652.78;10495588;28;20048;-71
2021/12/16 09:59:07;;;;;;;7.20;3.30;;;;;;;8.08;82.76;100743.09;10495135;28;20044;-72
2021/12/16 10:04:13;;;;;;;7.60;3.60;;;;;;;6.70;82.78;100504.63;10493740;28;20496;-71
2021/12/16 10:09:14;;;;;;;11.55;3.53;;;;;;;8.16;82.83;100722.00;10494728;28;20040;-72
2021/12/16 10:14:31;;;;;;;6.00;2.80;;;;;;;8.19;82.72;100699.72;10494875;28;20507;-72
2021/12/16 10:19:34;;;;;;;7.45;3.00;;;;;;;8.43;82.60;100744.25;10498948;28;20098;-72
2021/12/16 10:24:35;;;;;;;5.00;2.55;;;;;;;8.21;83.14;100740.94;10484690;28;20032;-72
2021/12/16 10:30:01;;;;;;;5.70;3.00;;;;;;;8.15;83.17;100728.28;10502043;28;20048;-72
2021/12/16 10:35:16;;;;;;;7.47;2.95;;;;;;;8.07;81.90;100722.88;10494393;28;20055;-72
2021/12/16 10:40:40;;;;;;;4.20;2.63;;;;;;;8.24;80.94;100737.19;10502332;28;20041;-72
2021/12/16 10:45:46;;;;;;;8.85;3.13;;;;;;;8.07;80.69;100717.56;10483166;28;20028;-72
2021/12/16 10:50:53;;;;;;;5.20;2.88;;;;;;;8.23;80.81;100735.53;10483285;28;20131;-71
2021/12/16 10:55:57;;;;;;;6.20;3.50;;;;;;;8.12;80.90;100715.34;10500989;28;20036;-72
2021/12/16 11:00:57;;;;;;;10.20;3.27;;;;;;;7.60;81.18;100646.13;10500421;28;20045;-72
2021/12/16 11:06:18;;;;;;;8.88;3.17;;;;;;;8.12;81.20;100733.03;10501260;28;20041;-72
2021/12/16 11:11:29;;;;;;;9.60;2.90;;;;;;;7.95;81.62;100735.41;10500284;28;20431;-72
2021/12/16 11:16:32;;;;;;;5.13;2.90;;;;;;;7.05;82.44;100571.88;10500481;28;20067;-72
2021/12/16 11:21:40;;;;;;;6.70;3.03;;;;;;;7.89;82.87;100740.44;10482294;28;20052;-73
2021/12/16 11:26:43;;;;;;;5.97;2.70;;;;;;;7.44;83.28;100702.19;10482450;28;20047;-72
2021/12/16 11:31:48;;;;;;;7.72;2.78;;;;;;;7.64;83.24;100721.53;10498840;28;20051;-72
2021/12/16 11:36:53;;;;;;;7.35;4.88;;;;;;;7.55;83.41;100731.13;10499486;28;20052;-72
2021/12/16 11:42:02;;;;;;;14.38;5.22;;;;;;;6.98;83.27;100658.78;10499241;28;20040;-72
2021/12/16 11:47:09;;;;;;;5.72;3.10;;;;;;;7.39;83.93;100728.22;10498932;28;20052;-72
2021/12/16 11:52:24;;;;;;;46.95;20.80;;;;;;;7.62;83.80;100720.84;10499402;28;20052;-72
2021/12/16 11:57:35;;;;;;;8.68;4.45;;;;;;;7.77;82.62;100752.97;10498508;28;20032;-72
2021/12/16 12:02:46;;;;;;;7.53;3.22;;;;;;;6.59;83.18;100565.47;10498182;28;20041;-73
2021/12/16 12:08:10;;;;;;;7.43;3.80;;;;;;;7.58;84.30;100753.81;10497091;28;20127;-72
2021/12/16 12:13:20;;;;;;;10.60;3.15;;;;;;;7.16;84.14;100653.66;10496843;28;20044;-72
2021/12/16 12:18:47;;;;;;;6.65;3.42;;;;;;;7.31;84.33;100706.94;10498123;28;20075;-73
2021/12/16 12:23:51;;;;;;;11.60;4.65;;;;;;;7.07;84.80;100652.66;10496753;28;20496;-72
2021/12/16 12:28:57;;;;;;;6.35;3.03;;;;;;;6.62;84.35;100605.63;10497734;28;20052;-74
2021/12/16 12:33:58;;;;;;;7.00;3.30;;;;;;;6.80;84.67;100665.69;10494765;28;20028;-71
2021/12/16 12:39:03;;;;;;;6.10;3.10;;;;;;;6.00;85.36;100543.38;10474412;28;20046;-72
2021/12/16 12:44:05;;;;;;;7.72;3.33;;;;;;;7.04;85.12;100734.00;10455162;28;20144;-71
2021/12/16 12:49:11;;;;;;;6.63;2.67;;;;;;;6.79;85.50;100696.56;10436807;28;20053;-72
2021/12/16 12:54:26;;;;;;;22.42;2.83;;;;;;;7.01;86.24;100736.91;10455200;28;20522;-73
2021/12/16 12:59:34;;;;;;;;;;;;;;;7.09;84.65;100743.19;10453770;28;20382;-73
2021/12/16 13:04:46;;;;;;;9.80;3.20;;;;;;;5.89;85.90;100586.47;10453070;28;19963;-70
2021/12/16 13:09:53;;;;;;;6.72;2.50;;;;;;;6.80;86.25;100772.16;10460571;28;20084;-72
2021/12/16 13:15:04;;;;;;;5.53;2.05;;;;;;;5.53;86.56;100555.34;10484163;28;20048;-71
2021/12/16 13:30:50;;;;;;;9.60;2.10;;;;;;;5.86;86.53;100609.63;10495533;28;20553;-72
2021/12/16 13:36:03;;;;;;;5.50;2.22;;;;;;;6.54;86.77;100731.31;10481882;28;20484;-72
2021/12/16 13:41:17;;;;;;;5.03;2.20;;;;;;;6.80;86.73;100763.41;10495005;28;20055;-71
2021/12/16 14:02:36;;;;;;;2.88;1.65;;;;;;;6.39;86.93;100709.72;10461183;28;20135;-72
2021/12/16 14:07:56;;;;;;;4.38;2.08;;;;;;;6.67;87.27;100761.00;10462403;28;20045;-72
2021/12/16 14:25:22;;;;;;;4.90;2.08;;;;;;;6.75;87.87;100749.75;10456410;28;20147;-72
2021/12/16 14:41:07;;;;;;;5.90;3.00;;;;;;;6.50;88.43;100753.69;10459817;28;20087;-72
2021/12/16 14:46:10;;;;;;;5.15;3.17;;;;;;;5.06;88.88;100554.91;10459171;28;20037;-72
2021/12/16 14:51:13;;;;;;;4.25;2.97;;;;;;;6.29;88.93;100769.53;10460257;28;20079;-72
2021/12/16 14:56:28;;;;;;;6.88;3.63;;;;;;;5.97;89.38;100741.44;10460973;28;20056;-72
2021/12/16 15:01:34;;;;;;;4.18;2.53;;;;;;;6.15;89.95;100763.59;10480883;28;20404;-73
2021/12/16 15:06:53;;;;;;;5.30;2.78;;;;;;;6.16;89.10;100762.66;10500527;28;20048;-71
2021/12/16 15:12:09;;;;;;;5.10;2.88;;;;;;;5.36;89.34;100652.44;10495526;28;20040;-70
2021/12/16 15:43:36;;;;;;;5.93;3.03;;;;;;;4.93;90.12;100592.75;10492598;28;20040;-70
2021/12/16 15:48:37;;;;;;;14.10;6.45;;;;;;;6.02;90.43;100775.34;10496616;28;20064;-72
2021/12/16 15:53:44;;;;;;;4.88;3.00;;;;;;;5.03;90.02;100614.75;10484777;28;22238;-70
2021/12/16 15:58:52;;;;;;;5.03;3.05;;;;;;;5.64;90.16;100716.88;10475062;28;20060;-69
2021/12/16 16:03:53;;;;;;;9.48;3.22;;;;;;;4.86;90.43;100604.75;10483177;28;21501;-70
2021/12/16 16:09:00;;;;;;;6.38;3.42;;;;;;;5.91;90.75;100763.00;10464259;28;20056;-75
2021/12/16 16:14:04;;;;;;;5.07;3.00;;;;;;;5.96;90.73;100775.84;10493366;28;20534;-70
2021/12/16 16:19:06;;;;;;;5.43;3.33;;;;;;;5.03;90.53;100637.63;10496521;28;20036;-72
2021/12/16 16:24:27;;;;;;;6.57;3.25;;;;;;;5.95;90.80;100772.34;10480155;28;20489;-73
2021/12/16 16:29:31;;;;;;;6.95;3.35;;;;;;;5.09;89.82;100628.38;10490986;28;20037;-72
2021/12/16 16:34:49;;;;;;;8.50;2.92;;;;;;;5.97;90.43;100762.53;10487594;28;20059;-73
2021/12/16 16:39:53;;;;;;;6.78;3.45;;;;;;;5.92;90.14;100760.25;10495499;28;20466;-73
2021/12/16 16:44:56;;;;;;;6.68;3.08;;;;;;;5.73;90.84;100739.00;10472959;28;20048;-73
2021/12/16 16:49:58;;;;;;;6.57;3.22;;;;;;;5.27;91.02;100655.84;10491992;28;20080;-74
2021/12/16 16:55:23;;;;;;;7.72;3.40;;;;;;;5.55;90.93;100693.91;10491353;28;20040;-72
2021/12/16 17:00:30;;;;;;;5.90;3.58;;;;;;;5.68;91.09;100714.81;10474602;28;20147;-72
2021/12/16 17:05:38;;;;;;;8.60;3.65;;;;;;;5.89;91.25;100736.78;10494406;28;20044;-72
2021/12/16 17:10:49;;;;;;;6.07;3.75;;;;;;;5.03;90.99;100600.75;10480697;28;20405;-72
2021/12/16 17:21:01;;;;;;;9.45;3.95;;;;;;;5.55;91.17;100682.53;10495237;28;20047;-72
2021/12/16 17:26:25;;;;;;;6.68;3.65;;;;;;;5.50;91.93;100667.09;10486271;28;20048;-73
2021/12/16 17:31:40;;;;;;;;;;;;;;;5.85;89.95;100716.88;10483376;28;20054;-72
2021/12/16 17:36:53;;;;;;;10.55;4.22;;;;;;;4.91;91.19;100571.00;10489283;28;19923;-72
2021/12/16 17:42:02;;;;;;;6.53;3.40;;;;;;;5.72;92.08;100695.16;10488841;28;20048;-72
2021/12/16 17:47:09;;;;;;;7.13;3.58;;;;;;;5.72;92.10;100689.88;10487424;28;20143;-71
2021/12/16 17:52:19;;;;;;;5.82;3.58;;;;;;;5.10;91.68;100585.28;10494535;28;20492;-71
2021/12/16 17:57:43;;;;;;;7.28;3.80;;;;;;;5.76;92.51;100693.94;10488821;28;20032;-72
2021/12/16 18:02:46;;;;;;;7.45;3.58;;;;;;;5.66;91.81;100671.94;10493967;28;20488;-72
2021/12/16 18:07:48;;;;;;;7.10;3.37;;;;;;;5.21;92.01;100598.41;10493476;28;20086;-72
2021/12/16 18:12:49;;;;;;;10.75;3.40;;;;;;;5.69;91.99;100687.50;10485850;28;20063;-72
2021/12/16 18:17:59;;;;;;;7.03;3.70;;;;;;;4.78;92.92;100518.50;10489001;28;20849;-71
2021/12/16 18:23:03;;;;;;;6.38;3.53;;;;;;;4.95;92.57;100535.56;10485763;28;20462;-71
2021/12/16 18:28:06;;;;;;;4.57;2.85;;;;;;;5.73;92.79;100667.81;10485457;28;20035;-72
2021/12/16 18:33:14;;;;;;;6.57;3.53;;;;;;;5.53;92.94;100634.38;10485562;28;20037;-72
2021/12/16 18:38:21;;;;;;;6.90;3.47;;;;;;;5.54;93.01;100638.72;10452136;28;20037;-71
2021/12/16 18:43:24;;;;;;;5.03;3.05;;;;;;;5.29;92.84;100611.75;10459888;28;20408;-71
2021/12/16 18:58:56;;;;;;;4.47;2.63;;;;;;;4.94;93.21;100531.25;10458062;28;20044;-71
2021/12/16 19:03:58;;;;;;;6.10;2.72;;;;;;;5.34;93.88;100587.69;10458935;28;20524;-71
2021/12/16 19:09:05;;;;;;;7.75;2.92;;;;;;;5.55;93.25;100617.50;10458113;28;20068;-71
2021/12/16 19:14:06;;;;;;;5.82;3.08;;;;;;;5.60;93.09;100631.13;10457209;28;20140;-71
2021/12/16 19:19:07;;;;;;;6.50;3.03;;;;;;;5.59;93.91;100633.88;10457800;28;20072;-71
2021/12/16 19:24:10;;;;;;;7.60;3.53;;;;;;;5.30;93.54;100568.66;10457960;28;20079;-70
2021/12/16 19:29:11;;;;;;;5.85;3.20;;;;;;;4.69;92.98;100461.38;10415945;28;20085;-71
2021/12/16 19:34:15;;;;;;;5.65;3.00;;;;;;;4.67;93.66;100467.75;10417263;28;20095;-70
2021/12/16 19:39:16;;;;;;;7.68;3.33;;;;;;;5.00;93.40;100541.28;10399157;28;20063;-70
2021/12/16 19:44:19;;;;;;;5.18;2.63;;;;;;;5.52;93.69;100617.75;10398671;28;20401;-68
2021/12/16 19:49:24;;;;;;;6.35;2.53;;;;;;;5.35;93.00;100584.91;10416100;28;20065;-70
2021/12/16 19:54:27;;;;;;;5.80;3.15;;;;;;;5.49;93.06;100602.19;10414283;28;20044;-70
2021/12/16 19:59:28;;;;;;;4.60;2.90;;;;;;;5.14;93.59;100560.34;10439687;28;20041;-71
2021/12/16 20:04:46;;;;;;;4.95;2.60;;;;;;;3.87;93.43;100333.13;10453511;28;20049;-70
2021/12/16 20:09:51;;;;;;;5.47;2.67;;;;;;;5.20;93.49;100551.94;10456033;28;20082;-70
2021/12/16 20:14:54;;;;;;;4.65;2.95;;;;;;;5.26;93.54;100561.97;10456926;28;20225;-70
2021/12/16 20:20:06;;;;;;;4.30;3.10;;;;;;;4.64;94.35;100468.84;10455425;28;20045;-70
2021/12/16 20:25:13;;;;;;;5.47;3.05;;;;;;;5.48;93.86;100600.53;10454698;28;20037;-71
2021/12/16 20:30:16;;;;;;;5.80;3.45;;;;;;;4.72;93.42;100469.00;10455417;28;20055;-70
2021/12/16 20:35:31;;;;;;;11.00;3.80;;;;;;;5.40;93.92;100597.69;10455498;28;20555;-70
2021/12/16 20:40:39;;;;;;;8.40;3.72;;;;;;;4.40;94.08;100436.63;10453118;28;20052;-70
2021/12/16 20:45:58;;;;;;;8.38;3.80;;;;;;;5.34;93.65;100572.69;10454509;28;20029;-70
2021/12/16 20:51:03;;;;;;;7.80;3.67;;;;;;;4.50;94.04;100424.41;10454885;28;20055;-71
2021/12/16 20:56:05;;;;;;;6.88;3.33;;;;;;;5.40;93.64;100574.00;10455384;28;20037;-70
2021/12/16 21:01:12;;;;;;;5.35;2.78;;;;;;;5.13;93.78;100525.28;10454134;28;20511;-71
2021/12/16 21:06:16;;;;;;;7.28;3.42;;;;;;;5.33;93.63;100549.97;10454409;28;20049;-70
2021/12/16 21:11:18;;;;;;;5.53;2.23;;;;;;;5.35;93.42;100552.47;10454200;28;20061;-73
2021/12/16 21:16:19;;;;;;;6.75;3.58;;;;;;;5.23;93.67;100539.38;10454947;28;20047;-70
2021/12/16 21:21:20;;;;;;;6.03;3.17;;;;;;;5.30;94.60;100544.97;10454971;28;20041;-70
2021/12/16 21:26:21;;;;;;;5.80;3.20;;;;;;;4.80;94.80;100455.25;10453790;28;20127;-70
2021/12/16 21:31:22;;;;;;;6.07;3.03;;;;;;;5.19;93.97;100502.88;10454126;28;20456;-70
2021/12/16 21:36:26;;;;;;;5.85;2.88;;;;;;;3.64;94.01;100245.66;10453760;28;20056;-71
2021/12/16 21:41:28;;;;;;;;;;;;;;;5.41;93.55;100504.53;10455272;28;20033;-71
2021/12/16 21:46:29;;;;;;;6.47;2.80;;;;;;;5.31;94.32;100508.91;10453475;28;19939;-70
2021/12/16 21:51:30;;;;;;;7.78;2.90;;;;;;;5.26;94.32;100494.34;10435921;28;20060;-70
2021/12/16 21:56:31;;;;;;;5.10;2.85;;;;;;;4.78;94.33;100412.41;10454230;28;20057;-70
2021/12/16 22:01:33;;;;;;;7.82;2.97;;;;;;;5.00;94.58;100443.03;10453754;28;20045;-71
2021/12/16 22:06:34;;;;;;;5.18;2.72;;;;;;;5.07;94.74;100443.34;10453586;28;20491;-70
2021/12/16 22:11:35;;;;;;;6.05;3.05;;;;;;;5.18;94.94;100461.72;10435586;28;20421;-70
2021/12/16 22:16:38;;;;;;;6.63;2.80;;;;;;;5.00;94.44;100421.97;10441762;28;20043;-71
2021/12/16 22:21:52;;;;;;;3.80;2.50;;;;;;;5.24;94.59;100466.47;10461306;28;20072;-71
2021/12/16 22:26:54;;;;;;;5.80;2.70;;;;;;;5.00;94.50;100435.97;10460520;28;20098;-70
2021/12/16 22:31:56;;;;;;;6.28;2.80;;;;;;;5.21;94.66;100445.66;10443455;28;20040;-70
2021/12/16 22:37:05;;;;;;;5.05;2.67;;;;;;;5.19;94.09;100422.06;10460010;28;20036;-70
2021/12/16 22:42:08;;;;;;;5.80;2.80;;;;;;;4.94;95.19;100397.00;10442880;28;20076;-70
2021/12/16 22:47:10;;;;;;;4.78;2.72;;;;;;;5.05;94.17;100398.72;10460750;28;20452;-70
2021/12/16 22:52:12;;;;;;;5.55;2.40;;;;;;;4.83;94.94;100364.66;10459873;28;20122;-70
2021/12/16 22:57:13;;;;;;;6.18;2.90;;;;;;;4.26;94.43;100295.78;10459591;28;20064;-70
2021/12/16 23:02:18;;;;;;;5.75;2.95;;;;;;;5.00;94.55;100412.28;10441789;28;20043;-70
2021/12/16 23:07:18;;;;;;;6.63;2.92;;;;;;;4.84;94.45;100368.94;10459232;28;20596;-70
2021/12/16 23:12:20;;;;;;;7.60;3.10;;;;;;;5.03;94.61;100409.38;10458900;28;20132;-70
2021/12/16 23:22:56;;;;;;;4.55;2.65;;;;;;;5.10;94.45;100466.78;10458634;28;20040;-70
2021/12/16 23:28:01;;;;;;;6.72;2.90;;;;;;;4.03;94.91;100311.66;10431758;28;20045;-71
2021/12/16 23:33:03;;;;;;;6.22;2.60;;;;;;;5.08;94.60;100505.56;10454098;28;20037;-70
2021/12/16 23:38:26;;;;;;;6.30;3.42;;;;;;;5.00;95.26;100446.50;10452272;28;20584;-70
2021/12/16 23:53:51;;;;;;;5.43;2.70;;;;;;;4.70;95.28;100384.13;10415869;28;20056;-70
2021/12/16 23:58:52;;;;;;;5.35;2.65;;;;;;;4.99;94.83;100417.66;10416024;28;20152;-71
